This is the latest recevied weather packets stored in our database for station/object VK2BLR. If no packets are shown the sender has not sent any weather packets the latest 10 day(s).
| Time | Temp. | Humidity | Pressure | Rain* | Wind** | Luminosity | Snow |
|---|---|---|---|---|---|---|---|
| 1788149192 | 75° F | 34% | 769.7 mmHg | 0 in | - | - | - |
| 1788148291 | 75° F | 33% | 769.7 mmHg | 0 in | - | - | - |
| 1788147391 | 75° F | 34% | 769.8 mmHg | 0 in | - | - | - |
| 1788146491 | 76° F | 36% | 769.9 mmHg | 0 in | - | - | - |
| 1788145592 | 76° F | 38% | 770 mmHg | 0 in | - | - | - |
| 1788144690 | 75° F | 35% | 770.3 mmHg | 0 in | - | - | - |
| 1788143791 | 75° F | 36% | 770.5 mmHg | 0 in | - | - | - |
| 1788142891 | 75° F | 38% | 770.6 mmHg | 0 in | - | - | - |
| 1788141990 | 75° F | 40% | 770.7 mmHg | 0 in | - | - | - |
| 1788141092 | 75° F | 40% | 770.9 mmHg | 0 in | - | - | - |
| 1788140192 | 75° F | 41% | 771 mmHg | 0 in | - | - | - |
| 1788139291 | 74° F | 40% | 771.1 mmHg | 0 in | - | - | - |
| 1788138390 | 74° F | 40% | 771.2 mmHg | 0 in | - | - | - |
| 1788137492 | 75° F | 41% | 771.2 mmHg | 0 in | - | - | - |
| 1788136592 | 74° F | 40% | 771.2 mmHg | 0 in | - | - | - |
| 1788135691 | 73° F | 40% | 771.1 mmHg | 0 in | - | - | - |
| 1788134790 | 73° F | 40% | 771.1 mmHg | 0 in | - | - | - |
| 1788133892 | 73° F | 40% | 771.1 mmHg | 0 in | - | - | - |
| 1788132992 | 73° F | 40% | 771.1 mmHg | 0 in | - | - | - |
| 1788132091 | 72° F | 44% | 771.1 mmHg | 0 in | - | - | - |
| 1788131190 | 71° F | 42% | 771.1 mmHg | 0 in | - | - | - |
| 1788130292 | 70° F | 46% | 771.1 mmHg | 0 in | - | - | - |
| 1788129390 | 68° F | 51% | 770.9 mmHg | 0 in | - | - | - |
| 1788128491 | 66° F | 52% | 771.1 mmHg | 0 in | - | - | - |
| 1788127592 | 63° F | 58% | 770.8 mmHg | 0 in | - | - | - |
* Rain latest hour (hover to see other rain measurements)
** Current wind speed in m/s (hover to see current wind gust speed)